Lake Isabella, Michigan
Current Conditions -  °F | °C
As of 2:38 AM on Thursday 23 Oct 2014 (Local Time) from KMOP Reporting Station
Haze Haze  
Wind Chill: 29°   Ceiling: Unl
Heat Index: 29°   Visibility: 2.5mi
Dew Point: 28°   Wind: 0mph
Humidity: 98%   Direction: NA
Pressure: 30.28"   Gusts: NA
Location:  43.6807°N, 84.9799°W
Report Text: KMOP 230638Z AUTO 00000KT 2 1/2SM BR CLR M02/M02 A3028 RMK AO2 T10171020
Loading
Personal Weather Stations






























Interactive Weather Map
Tropical Storm Tracking
New forecast layout! Learn more

10-Day Weather Forecast

Advertisements
Track Severe Weather on mobile